Lebanon Municipal Airport Lebanon US
ICAO: KLEB
IATA: LEB
Category: Medium
Scheduled Services: Yes

Elevation: 603 ft
TransAlt. 18000 ft.

Airport Communications:
BOSTON APP/DEP:134.7
ASOS:118.65
ATIS:118.65
CTAF:125.95
GND:121.6
BANGOR RDO:122.2
TWR:125.95
UNICOM:122.95

KLEB Zoom In..

Runways:

(A) RW 07 length 5496 ft width 100 ft
---- / hdg 75

(B) RW 18 length 5200 ft width 100 ft
ILS 111.90 / hdg 184

(C) RW 25 length 5496 ft width 100 ft
---- / hdg 255

(D) RW 36 length 5200 ft width 100 ft
---- / hdg 4

Location; KLEB
Day. 29 / Time. 21.53 Zulu
* Altimeter: 29.74
* Temperature: 30° c. 86°f.
* Wind from: 180° Speed 11 kn.
Dewpoint: 20° c.
Visibility: 10 Statute Miles.
Clouds: Few 11000 ft.

KLEB 292153Z 18011KT 10SM FEW110 30/20 A2974 RMK AO2 SLP059 T03000200


Wind From 180°
Speed 11 kn.

 
 
jpsmedia worldairports.se 2020   terms of use